createdAt,value
2018-12-08T00:00:36.121Z,82.63
2018-12-08T00:05:32.248Z,82.63
2018-12-08T00:10:28.292Z,84.06
2018-12-08T00:15:24.418Z,83.58
2018-12-08T00:20:20.441Z,83.48
2018-12-08T00:25:17.175Z,82.67
2018-12-08T00:30:25.558Z,83.49
2018-12-08T00:35:21.576Z,83.06
2018-12-08T00:40:17.621Z,82.58
2018-12-08T00:45:13.669Z,81.93
2018-12-08T00:50:09.811Z,81.79
2018-12-08T00:55:11.066Z,81.80
2018-12-08T01:00:07.253Z,81.76
2018-12-08T01:05:03.693Z,81.73
2018-12-08T01:09:59.742Z,80.79
2018-12-08T01:14:55.759Z,80.94
2018-12-08T01:19:51.764Z,82.16
2018-12-08T01:24:50.628Z,81.48
2018-12-08T01:29:46.642Z,81.45
2018-12-08T01:34:42.694Z,82.09
2018-12-08T01:39:38.708Z,81.13
2018-12-08T01:44:34.749Z,81.07
2018-12-08T01:49:30.765Z,80.54
2018-12-08T01:54:28.702Z,80.58
2018-12-08T01:59:24.798Z,81.11
2018-12-08T02:04:20.858Z,81.00
2018-12-08T02:09:16.878Z,82.13
2018-12-08T02:14:12.930Z,82.64
2018-12-08T02:19:08.932Z,83.42
2018-12-08T02:24:07.197Z,84.20
2018-12-08T02:29:03.341Z,83.90
2018-12-08T02:33:59.367Z,83.42
2018-12-08T02:38:55.459Z,82.84
2018-12-08T02:43:51.516Z,81.72
2018-12-08T02:48:47.639Z,80.95
2018-12-08T02:53:43.682Z,80.47
2018-12-08T02:58:39.753Z,79.68
2018-12-08T03:03:35.794Z,79.06
2018-12-08T03:08:32.065Z,79.69
2018-12-08T03:13:28.090Z,79.72
2018-12-08T03:18:24.199Z,79.54
2018-12-08T03:23:20.276Z,78.34
2018-12-08T03:28:16.306Z,78.68
2018-12-08T03:33:12.337Z,78.10
2018-12-08T03:38:08.430Z,78.74
2018-12-08T03:43:04.484Z,77.78
2018-12-08T03:48:00.500Z,78.36
2018-12-08T03:52:56.533Z,79.31
2018-12-08T03:57:52.681Z,78.90
2018-12-08T04:02:48.705Z,78.68
2018-12-08T04:07:44.740Z,79.63
2018-12-08T04:12:40.783Z,79.34
2018-12-08T04:17:36.869Z,78.95
2018-12-08T04:22:33.023Z,78.76
2018-12-08T04:27:30.903Z,79.07
2018-12-08T04:32:26.955Z,78.73
2018-12-08T04:37:23.006Z,78.45
2018-12-08T04:42:19.034Z,78.75
2018-12-08T04:47:15.149Z,78.92
2018-12-08T04:52:11.176Z,79.13
2018-12-08T04:57:07.189Z,78.96
2018-12-08T05:02:03.234Z,79.47
2018-12-08T05:06:59.265Z,78.53
2018-12-08T05:11:55.286Z,78.76
2018-12-08T05:16:51.369Z,78.57
2018-12-08T05:21:47.389Z,80.25
2018-12-08T05:26:43.402Z,82.60
2018-12-08T05:31:39.418Z,84.14
2018-12-08T05:36:35.441Z,84.82
2018-12-08T05:41:31.590Z,84.07
2018-12-08T05:46:27.609Z,85.26
2018-12-08T05:51:23.645Z,84.59
2018-12-08T05:56:19.664Z,85.56
2018-12-08T06:01:15.687Z,86.13
2018-12-08T06:06:11.798Z,87.78
2018-12-08T06:11:07.825Z,87.80
2018-12-08T06:16:03.958Z,88.09
2018-12-08T06:21:00.001Z,87.96
2018-12-08T06:25:56.134Z,88.88
2018-12-08T06:30:52.163Z,89.41
2018-12-08T06:35:48.217Z,89.13
2018-12-08T06:40:44.268Z,89.14
2018-12-08T06:45:40.325Z,88.67
2018-12-08T06:50:36.375Z,87.22
2018-12-08T06:55:32.415Z,86.61
2018-12-08T07:00:28.568Z,85.73
2018-12-08T07:05:24.658Z,86.01
2018-12-08T07:10:20.692Z,85.67
2018-12-08T07:15:16.727Z,86.18
2018-12-08T07:20:12.843Z,86.09
2018-12-08T07:25:10.055Z,86.09
2018-12-08T07:30:07.747Z,86.26
2018-12-08T07:35:04.730Z,85.60
2018-12-08T07:40:01.090Z,85.78
2018-12-08T07:44:57.150Z,87.27
2018-12-08T07:49:53.187Z,87.86
2018-12-08T07:54:49.876Z,87.72
2018-12-08T07:59:45.954Z,88.09
2018-12-08T08:04:42.015Z,88.05
2018-12-08T08:09:38.051Z,88.00
2018-12-08T08:14:34.098Z,88.17
2018-12-08T08:19:30.140Z,88.75
2018-12-08T08:24:29.691Z,88.51
2018-12-08T08:29:25.781Z,88.68
2018-12-08T08:34:21.895Z,88.75
2018-12-08T08:39:17.942Z,88.84
2018-12-08T08:44:13.997Z,89.18
2018-12-08T08:49:10.063Z,89.89
2018-12-08T08:54:07.803Z,89.30
2018-12-08T08:59:03.867Z,89.23
2018-12-08T09:03:59.937Z,89.56
2018-12-08T09:08:55.990Z,89.90
2018-12-08T09:13:52.057Z,89.99
2018-12-08T09:18:48.118Z,89.27
2018-12-08T09:23:44.302Z,89.49
2018-12-08T09:28:40.445Z,88.60
2018-12-08T09:33:36.476Z,89.20
2018-12-08T09:38:32.533Z,89.38
2018-12-08T09:43:28.566Z,89.43
2018-12-08T09:48:24.665Z,89.99
2018-12-08T09:53:20.755Z,90.39
2018-12-08T09:58:16.818Z,90.37
2018-12-08T10:03:12.850Z,90.91
2018-12-08T10:08:08.911Z,90.12
2018-12-08T10:13:05.875Z,90.74
2018-12-08T10:18:02.729Z,91.10
2018-12-08T10:22:59.517Z,90.94
2018-12-08T10:27:58.294Z,90.39
2018-12-08T10:32:55.132Z,90.84
2018-12-08T10:37:51.263Z,91.12
2018-12-08T10:42:47.316Z,91.35
2018-12-08T10:47:43.378Z,90.65
2018-12-08T10:52:39.417Z,90.10
2018-12-08T10:57:35.463Z,89.90
2018-12-08T11:02:36.505Z,91.25
2018-12-08T11:07:32.602Z,91.47
2018-12-08T11:12:28.666Z,91.78
2018-12-08T11:17:24.851Z,92.22
2018-12-08T11:22:20.904Z,92.41
2018-12-08T11:27:17.825Z,92.44
2018-12-08T11:32:15.789Z,92.05
2018-12-08T11:37:12.002Z,91.36
2018-12-08T11:42:08.063Z,91.58
2018-12-08T11:47:04.193Z,91.97
2018-12-08T11:52:00.239Z,91.27
2018-12-08T11:56:56.417Z,91.35
2018-12-08T12:01:52.477Z,91.92
2018-12-08T12:06:48.522Z,91.92
2018-12-08T12:11:44.550Z,90.09
2018-12-08T12:16:40.604Z,89.57
2018-12-08T12:21:36.698Z,89.58
2018-12-08T12:26:32.726Z,88.56
2018-12-08T12:31:28.761Z,87.54
2018-12-08T12:36:25.020Z,88.17
2018-12-08T12:41:21.088Z,86.27
2018-12-08T12:46:17.147Z,86.80
2018-12-08T12:51:13.284Z,86.78
2018-12-08T12:56:09.304Z,86.07
2018-12-08T13:01:05.523Z,85.16
2018-12-08T13:06:01.586Z,85.91
2018-12-08T13:10:57.617Z,86.19
2018-12-08T13:15:53.712Z,87.15
2018-12-08T13:20:50.561Z,86.35
2018-12-08T13:25:48.172Z,86.10
2018-12-08T13:30:44.776Z,84.19
2018-12-08T13:35:49.290Z,83.68
2018-12-08T13:40:45.338Z,83.42
2018-12-08T13:45:41.402Z,82.70
2018-12-08T13:50:37.571Z,81.48
2018-12-08T13:55:33.618Z,81.43
2018-12-08T14:00:29.680Z,81.47
2018-12-08T14:05:25.733Z,81.76
2018-12-08T14:10:21.804Z,82.32
2018-12-08T14:15:17.901Z,82.31
2018-12-08T14:20:22.014Z,82.54
2018-12-08T14:25:19.095Z,85.14
2018-12-08T14:30:15.168Z,84.74
2018-12-08T14:35:11.192Z,84.73
2018-12-08T14:40:08.334Z,84.22
2018-12-08T14:45:04.694Z,84.33
2018-12-08T14:50:00.729Z,84.26
2018-12-08T14:54:57.542Z,84.87
2018-12-08T14:59:53.624Z,86.76
2018-12-08T15:04:49.976Z,86.42
2018-12-08T15:09:46.087Z,85.28
2018-12-08T15:14:42.282Z,84.62
2018-12-08T15:19:38.335Z,85.37
2018-12-08T15:24:37.180Z,84.71
2018-12-08T15:29:33.291Z,84.23
2018-12-08T15:34:29.441Z,84.64
2018-12-08T15:39:25.495Z,84.21
2018-12-08T15:44:21.593Z,83.74
2018-12-08T15:49:17.611Z,81.98
2018-12-08T15:54:16.008Z,83.45
2018-12-08T15:59:12.093Z,87.37
2018-12-08T16:04:08.219Z,88.92
2018-12-08T16:09:04.581Z,89.25
2018-12-08T16:14:00.611Z,88.62
2018-12-08T16:18:57.053Z,86.07
2018-12-08T16:23:53.101Z,84.62
2018-12-08T16:28:49.151Z,85.47
2018-12-08T16:33:45.150Z,83.82
2018-12-08T16:38:41.162Z,84.76
2018-12-08T16:43:37.590Z,84.95
2018-12-08T16:48:35.711Z,85.22
2018-12-08T16:53:32.008Z,85.11
2018-12-08T16:58:28.113Z,85.08
2018-12-08T17:03:24.198Z,85.11
2018-12-08T17:08:20.321Z,85.46
2018-12-08T17:13:16.361Z,85.10
2018-12-08T17:18:12.506Z,84.88
2018-12-08T17:23:09.619Z,85.06
2018-12-08T17:28:05.733Z,84.73
2018-12-08T17:33:01.771Z,83.43
2018-12-08T17:37:57.997Z,82.82
2018-12-08T17:42:54.079Z,82.48
2018-12-08T17:47:50.267Z,81.56
2018-12-08T17:52:46.462Z,82.14
2018-12-08T17:57:42.575Z,81.02
2018-12-08T18:02:38.728Z,81.07
2018-12-08T18:07:35.075Z,81.31
2018-12-08T18:12:32.413Z,81.64
2018-12-08T18:17:30.651Z,81.43
2018-12-08T18:22:28.374Z,81.54
2018-12-08T18:27:27.420Z,81.81
2018-12-08T18:32:24.224Z,81.14
2018-12-08T18:37:20.299Z,81.67
2018-12-08T18:42:16.389Z,81.48
2018-12-08T18:47:12.399Z,81.93
2018-12-08T18:52:08.446Z,81.56
2018-12-08T18:57:04.797Z,80.90
2018-12-08T19:02:04.194Z,81.04
2018-12-08T19:07:01.850Z,82.84
2018-12-08T19:11:57.926Z,85.15
2018-12-08T19:16:53.950Z,87.72
2018-12-08T19:21:50.102Z,88.74
2018-12-08T19:26:46.133Z,89.39
2018-12-08T19:31:42.161Z,90.74
2018-12-08T19:36:38.179Z,90.86
2018-12-08T19:41:34.198Z,91.96
2018-12-08T19:46:30.235Z,92.83
2018-12-08T19:51:26.245Z,92.47
2018-12-08T19:56:22.325Z,92.54
2018-12-08T20:01:18.362Z,93.23
2018-12-08T20:06:14.369Z,93.12
2018-12-08T20:11:10.387Z,93.45
2018-12-08T20:16:06.430Z,92.65
2018-12-08T20:21:02.583Z,92.61
2018-12-08T20:25:58.593Z,92.15
2018-12-08T20:30:54.616Z,92.88
2018-12-08T20:35:50.630Z,92.09
2018-12-08T20:40:46.654Z,92.46
2018-12-08T20:45:43.547Z,92.38
2018-12-08T20:50:39.633Z,92.73
2018-12-08T20:55:42.421Z,93.15
2018-12-08T21:00:39.333Z,93.20
2018-12-08T21:05:35.414Z,93.20
2018-12-08T21:10:32.735Z,92.73
2018-12-08T21:15:28.875Z,92.79
2018-12-08T21:20:24.901Z,92.67
2018-12-08T21:25:21.669Z,92.83
2018-12-08T21:30:17.697Z,92.29
2018-12-08T21:35:13.743Z,91.97
2018-12-08T21:40:13.815Z,92.08
2018-12-08T21:45:09.988Z,91.32
2018-12-08T21:50:06.110Z,91.67
2018-12-08T21:55:03.008Z,90.97
2018-12-08T22:00:02.117Z,89.91
2018-12-08T22:04:58.165Z,89.48
2018-12-08T22:09:54.251Z,88.39
2018-12-08T22:14:56.363Z,89.54
2018-12-08T22:19:52.896Z,89.64
2018-12-08T22:24:49.611Z,89.59
2018-12-08T22:29:45.621Z,88.31
2018-12-08T22:34:41.740Z,88.20
2018-12-08T22:39:37.850Z,88.60
2018-12-08T22:44:33.864Z,87.78
2018-12-08T22:49:29.967Z,88.09
2018-12-08T22:54:27.005Z,88.80
2018-12-08T22:59:23.093Z,89.04
2018-12-08T23:04:19.120Z,88.56
2018-12-08T23:09:15.141Z,88.17
2018-12-08T23:14:11.169Z,87.81
2018-12-08T23:19:07.240Z,87.29
2018-12-08T23:24:04.814Z,87.24
2018-12-08T23:29:01.039Z,89.03
2018-12-08T23:33:57.066Z,90.30
2018-12-08T23:38:53.095Z,92.29
2018-12-08T23:43:49.129Z,92.00
2018-12-08T23:48:45.158Z,89.51
2018-12-08T23:58:54.046Z,88.20
